Time;durP1;ratioP1;P1;durP2;ratioP2;P2;SDS_P1;SDS_P2;PMS_P1;PMS_P2;Temp;Humidity;BMP_temperature;BMP_pressure;BME280_temperature;BME280_humidity;BME280_pressure;Samples;Min_cycle;Max_cycle;Signal;HPM_P1;HPM_P2
2022/01/04 00:00:19;;;;;;;;;1.50;1.00;;;;;8.52;85.30;98559.56;5091411;28;8860;-65
2022/01/04 00:02:46;;;;;;;;;0.00;0.00;;;;;8.50;85.15;98552.75;5091922;28;8849;-65
2022/01/04 00:05:15;;;;;;;;;3.00;3.00;;;;;8.47;85.37;98545.06;5092242;28;8938;-65
2022/01/04 00:07:42;;;;;;;;;3.00;3.00;;;;;8.44;85.73;98543.53;5090731;28;8964;-64
2022/01/04 00:10:10;;;;;;;;;2.50;1.00;;;;;8.42;85.57;98545.50;5091905;28;8834;-67
2022/01/04 00:15:24;;;;;;;;;2.00;2.00;;;;;8.36;85.63;98537.28;5090112;28;8871;-64
2022/01/04 00:17:52;;;;;;;;;1.00;1.00;;;;;8.35;85.70;98532.97;5091273;28;8846;-65
2022/01/04 00:20:20;;;;;;;;;3.00;1.00;;;;;8.32;85.57;98525.25;5090683;28;8860;-64
2022/01/04 00:22:48;;;;;;;;;1.00;1.00;;;;;8.29;85.61;98521.09;5090823;28;8856;-66
2022/01/04 00:25:16;;;;;;;;;0.00;0.00;;;;;8.26;86.01;98513.41;5090992;28;8849;-65
2022/01/04 00:27:44;;;;;;;;;1.00;0.25;;;;;8.25;85.46;98498.50;5092717;28;8878;-65
2022/01/04 00:30:11;;;;;;;;;1.00;1.00;;;;;8.25;86.08;98505.59;5091672;28;8846;-65
2022/01/04 00:32:39;;;;;;;;;0.00;0.00;;;;;8.23;86.08;98503.13;5092664;28;8871;-64
2022/01/04 00:35:07;;;;;;;;;3.25;3.25;;;;;8.22;85.71;98497.94;5091723;28;8853;-66
2022/01/04 00:37:35;;;;;;;;;1.00;1.00;;;;;8.19;86.02;98498.22;5091373;28;8975;-65
2022/01/04 00:40:07;;;;;;;;;0.25;0.25;;;;;8.17;85.90;98503.66;5089566;28;8838;-64
2022/01/04 00:42:34;;;;;;;;;0.75;0.75;;;;;8.15;85.89;98496.81;5092149;28;8846;-67
2022/01/04 00:45:03;;;;;;;;;0.00;0.00;;;;;8.12;86.21;98491.78;5091903;28;8976;-65
2022/01/04 00:47:42;;;;;;;;;0.00;0.00;;;;;8.11;86.09;98495.41;5091156;28;8838;-66
2022/01/04 00:50:08;;;;;;;;;0.50;0.50;;;;;8.08;86.19;98483.28;5091978;28;8854;-64
2022/01/04 00:52:36;;;;;;;;;0.00;0.00;;;;;8.07;86.03;98486.09;5090601;28;8850;-64
2022/01/04 00:55:04;;;;;;;;;2.50;2.50;;;;;8.05;86.09;98470.31;5090595;28;8826;-65
2022/01/04 00:57:32;;;;;;;;;1.00;1.00;;;;;8.05;86.53;98458.88;5090588;28;8904;-65
2022/01/04 00:59:59;;;;;;;;;0.50;0.50;;;;;8.04;85.93;98460.69;5091213;28;8830;-65
2022/01/04 01:02:27;;;;;;;;;3.00;1.00;;;;;8.03;86.08;98456.38;5091047;28;9732;-64
2022/01/04 01:04:55;;;;;;;;;0.75;0.75;;;;;8.01;86.14;98447.72;5091422;28;8834;-64
2022/01/04 01:07:23;;;;;;;;;1.50;1.50;;;;;8.01;86.42;98438.94;5089256;28;8854;-64
2022/01/04 01:10:03;;;;;;;;;0.00;0.00;;;;;7.99;86.45;98436.41;5089369;28;8842;-65
2022/01/04 01:12:31;;;;;;;;;3.00;3.00;;;;;7.98;86.42;98420.69;5090358;28;8821;-64
2022/01/04 01:14:59;;;;;;;;;2.00;2.00;;;;;7.96;86.58;98426.13;5090002;28;9687;-66
2022/01/04 01:17:26;;;;;;;;;3.00;3.00;;;;;7.95;86.17;98419.16;5089835;28;9484;-64
2022/01/04 01:19:54;;;;;;;;;0.50;0.50;;;;;7.95;86.52;98416.50;5090656;28;8834;-63
2022/01/04 01:22:22;;;;;;;;;1.00;0.50;;;;;7.93;86.17;98413.16;5090394;28;8895;-63
2022/01/04 01:24:52;;;;;;;;;3.00;3.00;;;;;7.93;86.49;98410.50;5090463;28;8999;-64
2022/01/04 01:27:19;;;;;;;;;3.25;3.00;;;;;7.91;86.60;98401.03;5089732;28;8869;-63
2022/01/04 01:29:47;;;;;;;;;2.50;2.50;;;;;7.90;86.57;98402.81;5089224;28;8826;-65
2022/01/04 01:32:15;;;;;;;;;2.50;2.50;;;;;7.90;86.37;98386.94;5090202;28;8867;-63
2022/01/04 01:34:43;;;;;;;;;1.00;1.00;;;;;7.90;86.38;98386.09;5090472;28;8933;-64
2022/01/04 01:37:10;;;;;;;;;3.25;2.50;;;;;7.90;86.54;98381.63;5090271;28;9013;-64
2022/01/04 01:39:38;;;;;;;;;2.00;0.75;;;;;7.91;86.95;98377.19;5090203;28;8838;-65
2022/01/04 01:42:06;;;;;;;;;1.00;1.00;;;;;7.90;86.72;98373.69;5088693;28;8873;-64
2022/01/04 01:44:34;;;;;;;;;1.50;1.00;;;;;7.89;86.29;98382.59;5091194;28;8981;-66
2022/01/04 01:47:01;;;;;;;;;3.00;3.00;;;;;7.88;86.68;98378.28;5088806;28;8846;-67
2022/01/04 01:49:29;;;;;;;;;4.00;4.00;;;;;7.86;86.91;98374.97;5089552;28;8858;-65
2022/01/04 01:51:57;;;;;;;;;3.25;3.25;;;;;7.85;86.95;98378.56;5088172;28;8865;-65
2022/01/04 01:54:25;;;;;;;;;4.50;4.50;;;;;7.85;87.36;98367.97;5088909;28;8863;-65
2022/01/04 01:56:53;;;;;;;;;3.50;3.00;;;;;7.84;86.76;98366.28;5089076;28;8866;-64
2022/01/04 01:59:20;;;;;;;;;3.00;3.00;;;;;7.85;86.79;98365.31;5090234;28;8853;-64
2022/01/04 02:01:48;;;;;;;;;3.00;2.00;;;;;7.83;86.99;98356.69;5089255;28;8903;-64
2022/01/04 02:04:16;;;;;;;;;1.50;1.50;;;;;7.84;86.92;98355.69;5090273;28;9554;-64
2022/01/04 02:06:44;;;;;;;;;3.00;2.50;;;;;7.83;86.50;98348.72;5089448;28;8973;-64
2022/01/04 02:09:12;;;;;;;;;4.00;4.00;;;;;7.83;86.34;98346.09;5090854;28;8846;-64
2022/01/04 02:11:39;;;;;;;;;4.00;4.00;;;;;7.82;86.78;98341.75;5089168;28;8880;-63
2022/01/04 02:14:07;;;;;;;;;2.00;1.00;;;;;7.82;86.27;98347.06;5090268;28;8845;-65
2022/01/04 02:16:35;;;;;;;;;3.25;3.00;;;;;7.81;86.83;98339.25;5089387;28;8845;-64
2022/01/04 02:19:03;;;;;;;;;3.50;3.50;;;;;7.79;87.11;98338.56;5089591;28;8830;-65
2022/01/04 02:21:30;;;;;;;;;3.00;3.00;;;;;7.79;87.03;98330.63;5092441;28;8984;-64
2022/01/04 02:23:59;;;;;;;;;2.00;2.00;;;;;7.78;86.89;98327.16;5092501;28;8938;-66
2022/01/04 02:26:26;;;;;;;;;3.25;3.25;;;;;7.77;86.72;98333.41;5091955;28;8860;-65
2022/01/04 02:28:54;;;;;;;;;3.75;3.75;;;;;7.76;86.98;98326.44;5094347;28;8846;-65
2022/01/04 02:31:22;;;;;;;;;2.50;0.75;;;;;7.75;87.14;98326.59;5093894;28;8866;-64
2022/01/04 02:33:50;;;;;;;;;4.00;3.25;;;;;7.75;87.30;98337.19;5093974;28;8853;-64
2022/01/04 02:36:17;;;;;;;;;3.25;3.25;;;;;7.74;86.95;98328.41;5093485;28;8862;-64
2022/01/04 02:38:45;;;;;;;;;3.00;3.00;;;;;7.73;86.98;98326.75;5094696;28;8842;-64
2022/01/04 02:41:13;;;;;;;;;1.00;1.00;;;;;7.74;87.33;98325.75;5092246;28;8860;-65
2022/01/04 02:43:41;;;;;;;;;2.00;1.00;;;;;7.73;86.69;98321.44;5094334;28;8838;-65
2022/01/04 02:46:08;;;;;;;;;0.00;0.00;;;;;7.72;87.11;98312.81;5094758;28;8927;-65
2022/01/04 02:48:36;;;;;;;;;2.50;1.50;;;;;7.72;86.87;98310.97;5094182;28;8861;-64
2022/01/04 02:51:04;;;;;;;;;3.25;3.00;;;;;7.72;87.05;98308.31;5093976;28;8960;-65
2022/01/04 02:53:33;;;;;;;;;1.00;1.00;;;;;7.72;87.31;98309.19;5093300;28;8814;-64
2022/01/04 02:56:01;;;;;;;;;3.25;1.00;;;;;7.70;87.03;98310.28;5093207;28;8846;-64
2022/01/04 02:58:29;;;;;;;;;0.00;0.00;;;;;7.71;87.04;98301.38;5093108;28;8985;-63
2022/01/04 03:00:57;;;;;;;;;0.50;0.50;;;;;7.70;86.54;98303.16;5092465;28;8968;-64
2022/01/04 03:03:25;;;;;;;;;1.00;1.00;;;;;7.68;87.03;98294.53;5094352;28;8861;-64
2022/01/04 03:05:53;;;;;;;;;1.00;1.00;;;;;7.68;86.31;98284.94;5093079;28;8972;-64
2022/01/04 03:08:21;;;;;;;;;0.25;0.25;;;;;7.67;87.01;98285.91;5092612;28;8887;-64
2022/01/04 03:10:48;;;;;;;;;0.00;0.00;;;;;7.64;86.95;98287.03;5093454;28;8867;-64
2022/01/04 03:13:16;;;;;;;;;1.00;0.00;;;;;7.62;87.07;98282.84;5093654;28;8849;-65
2022/01/04 03:15:44;;;;;;;;;0.00;0.00;;;;;7.60;87.16;98288.31;5093287;28;8837;-64
2022/01/04 03:18:12;;;;;;;;;0.25;0.00;;;;;7.60;86.90;98277.72;5093281;28;8842;-64
2022/01/04 03:20:40;;;;;;;;;1.00;1.00;;;;;7.60;87.05;98275.06;5093311;28;8850;-64
2022/01/04 03:23:10;;;;;;;;;0.50;0.50;;;;;7.59;86.61;98281.31;5091938;28;8977;-66
2022/01/04 03:25:40;;;;;;;;;1.00;1.00;;;;;7.58;86.81;98268.25;5092608;28;8927;-63
2022/01/04 03:28:08;;;;;;;;;0.00;0.00;;;;;7.58;86.72;98265.59;5093197;28;8858;-63
2022/01/04 03:30:36;;;;;;;;;1.00;0.50;;;;;7.57;87.10;98261.28;5093053;28;8826;-64
2022/01/04 03:33:03;;;;;;;;;0.75;0.75;;;;;7.56;86.71;98254.28;5091082;28;9646;-64
2022/01/04 03:35:31;;;;;;;;;3.00;3.00;;;;;7.54;86.90;98256.25;5092704;28;8960;-64
2022/01/04 03:37:59;;;;;;;;;1.50;1.50;;;;;7.53;86.92;98250.13;5091670;28;8854;-64
2022/01/04 03:40:27;;;;;;;;;3.00;1.00;;;;;7.52;87.60;98242.31;5093045;28;8866;-63
2022/01/04 03:42:54;;;;;;;;;1.00;1.00;;;;;7.51;87.12;98235.38;5092925;28;8842;-63
2022/01/04 03:45:22;;;;;;;;;1.00;1.00;;;;;7.50;87.44;98229.22;5092322;28;8918;-63
2022/01/04 03:47:51;;;;;;;;;1.50;1.50;;;;;7.50;87.15;98213.34;5092267;28;8862;-63
2022/01/04 03:50:19;;;;;;;;;2.00;2.00;;;;;7.50;87.16;98208.03;5093547;28;8880;-63
2022/01/04 03:52:47;;;;;;;;;4.00;4.00;;;;;7.52;87.19;98207.91;5092149;28;9000;-64
2022/01/04 03:55:15;;;;;;;;;1.00;1.00;;;;;7.51;87.52;98200.94;5092838;28;8834;-64
2022/01/04 03:57:42;;;;;;;;;2.00;0.00;;;;;7.52;87.24;98192.00;5092963;28;8854;-65
2022/01/04 04:00:10;;;;;;;;;1.50;1.00;;;;;7.52;87.12;98189.38;5091417;28;8860;-64
2022/01/04 04:02:38;;;;;;;;;3.00;3.00;;;;;7.52;86.89;98182.25;5092383;28;8834;-64
2022/01/04 04:05:06;;;;;;;;;2.00;2.00;;;;;7.55;87.23;98175.81;5091472;28;8846;-65
2022/01/04 04:07:33;;;;;;;;;1.00;1.00;;;;;7.57;86.89;98171.22;5092175;28;8853;-64
2022/01/04 04:10:01;;;;;;;;;3.00;3.00;;;;;7.58;87.30;98159.66;5092468;28;8850;-64
2022/01/04 04:12:29;;;;;;;;;2.00;2.00;;;;;7.60;86.94;98161.19;5092355;28;8976;-64
2022/01/04 04:14:58;;;;;;;;;3.00;3.00;;;;;7.62;86.95;98153.06;5093808;28;8829;-64
2022/01/04 04:17:26;;;;;;;;;3.00;3.00;;;;;7.63;86.60;98144.13;5091945;28;8850;-64
2022/01/04 04:19:54;;;;;;;;;4.00;3.50;;;;;7.65;86.63;98129.75;5092581;28;8867;-64
2022/01/04 04:22:21;;;;;;;;;1.50;1.00;;;;;7.66;86.45;98142.03;5091685;28;9654;-64
2022/01/04 04:24:49;;;;;;;;;1.50;1.50;;;;;7.67;86.70;98133.13;5091756;28;8996;-64
2022/01/04 04:27:17;;;;;;;;;1.00;1.00;;;;;7.68;86.34;98128.63;5092046;28;8870;-64
2022/01/04 04:29:45;;;;;;;;;1.50;1.50;;;;;7.69;86.60;98124.00;5090795;28;8844;-64
2022/01/04 04:32:12;;;;;;;;;0.75;0.50;;;;;7.70;86.45;98112.44;5091802;28;8865;-64
2022/01/04 04:34:40;;;;;;;;;1.00;1.00;;;;;7.72;86.39;98117.59;5092062;28;8838;-64
2022/01/04 04:37:08;;;;;;;;;1.00;1.00;;;;;7.73;86.30;98117.44;5092226;28;8913;-64
2022/01/04 04:39:36;;;;;;;;;3.00;3.00;;;;;7.74;86.26;98097.06;5091797;28;8846;-64
2022/01/04 04:42:04;;;;;;;;;2.00;2.00;;;;;7.74;86.13;98095.28;5092038;28;8876;-64
2022/01/04 04:44:32;;;;;;;;;1.00;1.00;;;;;7.75;86.31;98093.47;5090734;28;8976;-64
2022/01/04 04:46:59;;;;;;;;;0.25;0.25;;;;;7.75;86.04;98089.00;5089031;28;8864;-64
2022/01/04 04:49:27;;;;;;;;;1.00;1.00;;;;;7.74;86.06;98079.38;5088237;28;8857;-64
2022/01/04 04:51:59;;;;;;;;;0.75;0.75;;;;;7.74;86.15;98083.81;5089603;28;8906;-64
2022/01/04 04:54:27;;;;;;;;;3.00;2.00;;;;;7.74;86.56;98083.81;5084246;28;8970;-64
2022/01/04 04:56:54;;;;;;;;;1.75;0.75;;;;;7.73;86.43;98083.00;5088042;28;10007;-64
2022/01/04 04:59:22;;;;;;;;;2.00;0.75;;;;;7.74;86.35;98084.69;5088635;28;8846;-64
2022/01/04 05:01:50;;;;;;;;;1.00;1.00;;;;;7.74;86.14;98081.19;5088013;28;8875;-64
2022/01/04 05:04:19;;;;;;;;;1.00;1.00;;;;;7.73;85.85;98075.06;5089391;28;8862;-64
2022/01/04 05:06:46;;;;;;;;;1.00;1.00;;;;;7.73;86.07;98069.78;5089615;28;9768;-64
2022/01/04 05:09:14;;;;;;;;;0.25;0.00;;;;;7.73;86.51;98067.13;5091116;28;8853;-64
2022/01/04 05:11:43;;;;;;;;;1.00;1.00;;;;;7.73;85.68;98067.13;5091093;28;8924;-64
2022/01/04 05:14:11;;;;;;;;;1.00;1.00;;;;;7.73;85.78;98075.06;5091013;28;8853;-64
2022/01/04 05:16:39;;;;;;;;;3.00;3.00;;;;;7.72;86.04;98062.81;5091442;28;8899;-64
2022/01/04 05:19:06;;;;;;;;;0.00;0.00;;;;;7.73;86.35;98064.47;5091695;28;8992;-64
2022/01/04 05:21:34;;;;;;;;;1.00;1.00;;;;;7.72;86.03;98054.88;5091208;28;8922;-64
2022/01/04 05:24:02;;;;;;;;;2.00;0.50;;;;;7.71;85.84;98062.94;5089136;28;8850;-64
2022/01/04 05:26:30;;;;;;;;;0.00;0.00;;;;;7.69;86.24;98065.75;5090577;28;8869;-64
2022/01/04 05:28:57;;;;;;;;;1.00;1.00;;;;;7.71;86.24;98062.94;5089570;28;8949;-64
2022/01/04 05:31:29;;;;;;;;;1.00;1.00;;;;;7.70;85.94;98059.44;5091530;28;8841;-64
2022/01/04 05:33:57;;;;;;;;;1.00;1.00;;;;;7.70;86.11;98056.00;5089794;28;9504;-65
2022/01/04 05:36:25;;;;;;;;;0.00;0.00;;;;;7.71;85.90;98057.66;5090234;28;8909;-64
2022/01/04 05:38:53;;;;;;;;;1.00;1.00;;;;;7.70;85.87;98061.28;5090698;28;9569;-64
2022/01/04 05:41:21;;;;;;;;;1.00;1.00;;;;;7.70;85.90;98059.44;5090075;28;8870;-64
2022/01/04 05:43:49;;;;;;;;;1.00;1.00;;;;;7.70;85.93;98056.81;5090291;28;8952;-64
2022/01/04 05:46:16;;;;;;;;;2.50;2.50;;;;;7.72;86.02;98063.81;5090384;28;9573;-64
2022/01/04 05:48:44;;;;;;;;;1.50;1.00;;;;;7.69;86.01;98057.78;5090747;28;8862;-64
2022/01/04 05:51:12;;;;;;;;;1.00;1.00;;;;;7.69;85.92;98057.78;5089721;28;8862;-65
2022/01/04 05:53:40;;;;;;;;;3.00;3.00;;;;;7.69;85.96;98060.44;5089454;28;8913;-64
2022/01/04 05:56:07;;;;;;;;;2.00;1.00;;;;;7.68;85.60;98056.13;5089556;28;8960;-64
2022/01/04 05:58:35;;;;;;;;;1.50;1.00;;;;;7.68;85.91;98052.66;5089871;28;8845;-65
2022/01/04 06:01:03;;;;;;;;;3.25;3.00;;;;;7.69;85.80;98055.16;5089257;28;8850;-64
2022/01/04 06:03:31;;;;;;;;;0.50;0.50;;;;;7.69;86.01;98054.31;5089822;28;9503;-64
2022/01/04 06:05:59;;;;;;;;;3.00;2.00;;;;;7.68;85.77;98042.88;5090292;28;8972;-64
2022/01/04 06:08:32;;;;;;;;;2.50;1.00;;;;;7.68;85.98;98031.47;5089341;28;8850;-64
2022/01/04 06:10:59;;;;;;;;;3.50;3.00;;;;;7.68;85.94;98020.03;5089397;28;8972;-65
2022/01/04 06:16:13;;;;;;;;;4.00;2.00;;;;;7.66;86.04;98019.38;5088448;28;8846;-64
2022/01/04 06:18:42;;;;;;;;;3.50;3.00;;;;;7.65;86.06;98015.06;5089375;28;8842;-65
2022/01/04 06:21:10;;;;;;;;;1.00;1.00;;;;;7.65;85.86;98012.41;5086760;28;8830;-65
2022/01/04 06:23:39;;;;;;;;;4.50;3.50;;;;;7.65;86.02;98015.06;5088772;28;8826;-64
2022/01/04 06:26:06;;;;;;;;;2.75;2.75;;;;;7.65;86.06;98012.41;5088701;28;8876;-64
2022/01/04 06:28:34;;;;;;;;;4.50;3.00;;;;;7.65;85.91;98009.75;5087306;28;8842;-65
2022/01/04 06:31:02;;;;;;;;;1.00;1.00;;;;;7.66;85.88;98000.81;5087844;28;8900;-65
2022/01/04 06:33:30;;;;;;;;;3.00;3.00;;;;;7.65;85.84;97999.16;5087911;28;8953;-65
2022/01/04 06:35:57;;;;;;;;;3.00;2.50;;;;;7.65;85.85;98015.88;5086440;28;8850;-64
2022/01/04 06:38:25;;;;;;;;;1.50;1.50;;;;;7.65;86.01;98009.75;5087447;28;8867;-64
2022/01/04 06:40:53;;;;;;;;;3.00;3.00;;;;;7.64;86.01;97992.22;5086457;28;10103;-64
2022/01/04 06:43:21;;;;;;;;;1.00;1.00;;;;;7.62;85.59;97995.00;5086400;28;8966;-64
2022/01/04 06:45:48;;;;;;;;;7.00;4.00;;;;;7.61;86.43;97992.50;5086097;28;9817;-64
2022/01/04 06:48:16;;;;;;;;;2.50;2.50;;;;;7.58;86.31;97983.03;5085200;28;8846;-64
2022/01/04 06:50:44;;;;;;;;;5.20;5.00;;;;;7.56;85.93;97987.66;5086752;28;8872;-65
2022/01/04 06:53:12;;;;;;;;;3.50;3.50;;;;;7.54;86.02;97976.38;5085078;28;8901;-65
2022/01/04 06:55:40;;;;;;;;;3.25;3.25;;;;;7.53;86.24;97972.06;5084289;28;8848;-64
2022/01/04 06:58:08;;;;;;;;;4.50;3.50;;;;;7.53;85.92;97974.72;5084660;28;9011;-65
2022/01/04 07:00:35;;;;;;;;;3.50;3.25;;;;;7.51;86.27;97970.56;5085245;28;8846;-65
2022/01/04 07:03:03;;;;;;;;;5.50;5.50;;;;;7.52;86.43;97970.41;5086464;28;9804;-64
2022/01/04 07:05:34;;;;;;;;;2.50;0.50;;;;;7.52;86.02;97972.22;5088591;28;8857;-65
2022/01/04 07:08:02;;;;;;;;;4.00;3.25;;;;;7.52;86.10;97956.31;5088050;28;8862;-65
2022/01/04 07:10:29;;;;;;;;;3.60;3.60;;;;;7.53;86.17;97952.69;5087591;28;8985;-65
2022/01/04 07:12:57;;;;;;;;;3.25;2.25;;;;;7.53;86.16;97952.69;5088850;28;8926;-64
2022/01/04 07:15:25;;;;;;;;;4.00;4.00;;;;;7.52;86.00;97951.03;5086327;28;8846;-64
2022/01/04 07:17:53;;;;;;;;;6.00;6.00;;;;;7.52;85.71;97951.88;5085582;28;8862;-64
2022/01/04 07:20:21;;;;;;;;;4.00;4.00;;;;;7.52;86.10;97948.38;5087068;28;8850;-63
2022/01/04 07:22:48;;;;;;;;;2.00;2.00;;;;;7.52;85.96;97943.09;5085389;28;8837;-63
2022/01/04 07:25:16;;;;;;;;;5.50;5.50;;;;;7.51;85.93;97938.78;5085781;28;8830;-64
2022/01/04 07:27:44;;;;;;;;;4.25;3.75;;;;;7.51;86.59;97947.53;5087756;28;9928;-64
2022/01/04 07:30:12;;;;;;;;;6.00;4.00;;;;;7.51;85.90;97952.03;5089098;28;8838;-64
2022/01/04 07:32:39;;;;;;;;;4.00;3.25;;;;;7.51;86.17;97946.72;5088277;28;8850;-63
2022/01/04 07:35:08;;;;;;;;;3.00;3.00;;;;;7.52;86.22;97945.75;5087390;28;8930;-63
2022/01/04 07:37:35;;;;;;;;;4.25;3.50;;;;;7.51;86.07;97941.44;5086183;28;8850;-66
2022/01/04 07:40:03;;;;;;;;;1.00;0.00;;;;;7.51;86.04;97936.94;5087764;28;9535;-65
2022/01/04 07:42:31;;;;;;;;;3.25;3.25;;;;;7.52;86.15;97943.09;5088192;28;8834;-67
2022/01/04 07:44:59;;;;;;;;;4.75;4.25;;;;;7.54;86.18;97943.75;5086671;28;9540;-67
2022/01/04 07:47:27;;;;;;;;;4.00;3.25;;;;;7.55;85.84;97945.41;5086958;28;8849;-64
2022/01/04 07:49:54;;;;;;;;;3.00;3.00;;;;;7.53;86.07;97942.94;5085087;28;9266;-64
2022/01/04 07:52:22;;;;;;;;;4.00;3.75;;;;;7.55;85.95;97946.25;5085493;28;8885;-64
2022/01/04 07:54:50;;;;;;;;;4.00;4.00;;;;;7.55;85.87;97946.25;5087646;28;8864;-64
2022/01/04 07:57:18;;;;;;;;;3.00;3.00;;;;;7.55;86.27;97943.63;5088282;28;8882;-65
2022/01/04 07:59:45;;;;;;;;;6.00;5.00;;;;;7.57;85.48;97944.28;5087415;28;8834;-65
2022/01/04 08:02:13;;;;;;;;;3.25;3.25;;;;;7.58;85.38;97934.53;5086145;28;8850;-65
2022/01/04 08:04:41;;;;;;;;;4.00;3.50;;;;;7.60;85.72;97943.16;5086401;28;8897;-65
2022/01/04 08:07:09;;;;;;;;;6.00;4.00;;;;;7.61;85.39;97940.38;5085106;28;8850;-64
2022/01/04 08:09:37;;;;;;;;;3.25;3.00;;;;;7.62;85.78;97935.88;5082745;28;8910;-64
2022/01/04 08:12:07;;;;;;;;;5.50;3.50;;;;;7.62;85.26;97935.88;5087238;28;8850;-64
2022/01/04 08:14:34;;;;;;;;;3.75;3.50;;;;;7.62;85.73;97944.66;5085893;28;8854;-64
2022/01/04 08:17:05;;;;;;;;;6.25;4.50;;;;;7.63;85.75;97942.84;5084239;28;8850;-64
2022/01/04 08:19:33;;;;;;;;;7.00;6.50;;;;;7.65;85.36;97938.25;5084749;28;8984;-64
2022/01/04 08:22:02;;;;;;;;;9.00;8.20;;;;;7.64;85.52;97934.75;5083874;28;8852;-64
2022/01/04 08:24:29;;;;;;;;;6.50;5.00;;;;;7.63;85.48;97926.94;5082657;28;8861;-64
2022/01/04 08:26:57;;;;;;;;;6.50;5.25;;;;;7.65;85.55;97925.00;5082406;28;8967;-64
2022/01/04 08:29:25;;;;;;;;;5.00;4.50;;;;;7.63;85.71;97929.59;5082621;28;8880;-64
2022/01/04 08:31:53;;;;;;;;;8.50;6.75;;;;;7.62;85.70;97930.59;5083956;28;8850;-64
2022/01/04 08:34:21;;;;;;;;;9.60;7.80;;;;;7.61;85.60;97923.63;5083384;28;8970;-64
2022/01/04 08:36:49;;;;;;;;;4.00;4.00;;;;;7.61;85.92;97923.63;5084412;28;8842;-64
2022/01/04 08:39:17;;;;;;;;;9.25;8.00;;;;;7.60;85.48;97930.75;5083421;28;9181;-64
2022/01/04 08:41:46;;;;;;;;;3.50;3.00;;;;;7.58;85.57;97934.53;5085283;28;8862;-64
2022/01/04 08:44:14;;;;;;;;;5.00;5.00;;;;;7.59;85.77;97930.91;5083758;28;8872;-64
2022/01/04 08:46:42;;;;;;;;;4.00;3.20;;;;;7.60;85.41;97936.06;5085151;28;8981;-65
2022/01/04 08:49:09;;;;;;;;;4.00;3.50;;;;;7.61;85.54;97934.22;5084646;28;8866;-65
2022/01/04 08:51:37;;;;;;;;;8.50;6.50;;;;;7.62;85.51;97941.19;5080772;28;8854;-64
2022/01/04 08:54:05;;;;;;;;;5.00;3.50;;;;;7.64;85.48;97936.59;5083579;28;8878;-64
2022/01/04 08:56:33;;;;;;;;;4.00;4.00;;;;;7.64;85.78;97923.34;5082890;28;8865;-64
2022/01/04 08:59:03;;;;;;;;;3.75;3.00;;;;;7.64;85.75;97916.22;5085651;28;8830;-64
2022/01/04 09:01:31;;;;;;;;;7.50;7.00;;;;;7.64;85.54;97897.66;5084098;28;8922;-65
2022/01/04 09:04:01;;;;;;;;;7.80;6.80;;;;;7.65;85.84;97887.91;5082339;28;8908;-65
2022/01/04 09:06:28;;;;;;;;;4.00;3.00;;;;;7.65;86.08;97899.31;5081995;28;8841;-65
2022/01/04 09:08:57;;;;;;;;;6.25;6.00;;;;;7.66;85.67;97885.09;5082552;28;8842;-65
2022/01/04 09:11:25;;;;;;;;;4.00;3.75;;;;;7.67;85.72;97880.66;5082443;28;8975;-65
2022/01/04 09:14:00;;;;;;;;;3.00;2.00;;;;;7.68;86.14;97884.94;5082912;28;8852;-65
2022/01/04 09:19:13;;;;;;;;;6.25;5.75;;;;;7.70;85.19;97878.53;5083220;28;8850;-65
2022/01/04 09:21:40;;;;;;;;;7.00;7.00;;;;;7.71;85.34;97890.78;5084461;28;8834;-65
2022/01/04 09:24:08;;;;;;;;;7.75;6.00;;;;;7.74;85.63;97899.25;5084687;28;8867;-65
2022/01/04 09:26:36;;;;;;;;;4.50;3.75;;;;;7.76;85.37;97899.91;5080604;28;8988;-65
2022/01/04 09:29:04;;;;;;;;;6.00;5.50;;;;;7.80;85.47;97905.72;5080948;28;8882;-64
2022/01/04 09:31:32;;;;;;;;;6.00;3.50;;;;;7.84;85.67;97915.88;5081591;28;9931;-65
2022/01/04 09:34:00;;;;;;;;;6.50;6.50;;;;;7.88;85.48;97924.34;5081344;28;9851;-65
2022/01/04 09:36:28;;;;;;;;;3.00;3.00;;;;;7.91;85.03;97926.69;5081166;28;8830;-65
2022/01/04 09:38:56;;;;;;;;;5.00;3.75;;;;;7.94;85.33;97935.16;5081170;28;8956;-65
2022/01/04 09:41:24;;;;;;;;;5.50;4.00;;;;;8.01;85.29;97944.16;5080500;28;8878;-65
2022/01/04 09:43:51;;;;;;;;;3.00;3.00;;;;;8.06;84.87;97947.16;5082456;28;8954;-65
2022/01/04 09:46:19;;;;;;;;;3.50;3.50;;;;;8.10;84.79;97935.28;5084015;28;8853;-65
2022/01/04 09:48:47;;;;;;;;;5.75;5.50;;;;;8.14;84.73;97922.53;5079944;28;8900;-65
2022/01/04 09:51:15;;;;;;;;;1.00;1.00;;;;;8.17;84.84;97920.41;5081227;28;8869;-65
2022/01/04 09:53:43;;;;;;;;;4.00;3.00;;;;;8.18;84.81;97910.63;5082566;28;8822;-65
2022/01/04 09:56:10;;;;;;;;;2.00;2.00;;;;;8.19;84.61;97914.97;5082006;28;8856;-65
2022/01/04 09:58:38;;;;;;;;;5.25;4.50;;;;;8.19;84.54;97896.41;5081826;28;8857;-65
2022/01/04 10:01:06;;;;;;;;;0.75;0.75;;;;;8.19;85.06;97897.25;5082889;28;8866;-65
2022/01/04 10:03:35;;;;;;;;;2.50;2.00;;;;;8.18;85.14;97898.22;5080905;28;8862;-65
2022/01/04 10:06:03;;;;;;;;;2.50;2.50;;;;;8.17;84.86;97912.47;5079212;28;8850;-66
2022/01/04 10:08:31;;;;;;;;;3.25;3.25;;;;;8.16;84.32;97910.81;5081169;28;8858;-65
2022/01/04 10:10:59;;;;;;;;;3.50;2.00;;;;;8.15;84.40;97918.91;5081143;28;8930;-65
2022/01/04 10:13:27;;;;;;;;;3.00;1.25;;;;;8.14;85.00;97917.25;5081344;28;8995;-65
2022/01/04 10:15:55;;;;;;;;;4.00;4.00;;;;;8.13;85.02;97886.44;5083460;28;8850;-64
2022/01/04 10:18:28;;;;;;;;;1.00;1.00;;;;;8.11;84.53;97875.97;5080455;28;8853;-65
2022/01/04 10:20:56;;;;;;;;;0.00;0.00;;;;;8.09;84.71;97896.50;5078680;28;8911;-65
2022/01/04 10:23:25;;;;;;;;;3.00;2.50;;;;;8.05;84.75;97886.38;5081149;28;8868;-65
2022/01/04 10:25:52;;;;;;;;;2.25;2.00;;;;;8.01;84.96;97874.41;5082247;28;8842;-65
2022/01/04 10:28:20;;;;;;;;;2.50;2.00;;;;;8.01;85.00;97874.41;5082002;28;8992;-65
2022/01/04 10:30:48;;;;;;;;;2.00;2.00;;;;;8.00;85.14;97873.56;5079946;28;8854;-65
2022/01/04 10:33:16;;;;;;;;;0.25;0.25;;;;;8.00;84.67;97878.06;5080239;28;8873;-65
2022/01/04 10:35:43;;;;;;;;;1.00;1.00;;;;;8.01;84.90;97882.38;5080482;28;8968;-65
2022/01/04 10:38:11;;;;;;;;;3.75;3.75;;;;;8.02;85.41;97887.50;5078986;28;8980;-64
2022/01/04 10:40:39;;;;;;;;;6.00;3.00;;;;;8.02;85.30;97887.50;5079231;28;8873;-65
2022/01/04 10:43:07;;;;;;;;;5.00;3.50;;;;;8.03;84.87;97893.63;5084392;28;8992;-64
2022/01/04 10:45:35;;;;;;;;;3.00;2.00;;;;;8.03;85.19;97894.47;5086616;28;8919;-65
2022/01/04 10:48:03;;;;;;;;;2.50;2.50;;;;;8.03;84.94;97902.44;5085677;28;8857;-64
2022/01/04 10:50:31;;;;;;;;;1.00;1.00;;;;;8.05;85.01;97918.19;5083854;28;8868;-65
2022/01/04 10:52:58;;;;;;;;;1.00;1.00;;;;;8.06;85.21;97904.75;5082041;28;8849;-65
2022/01/04 10:55:26;;;;;;;;;1.00;1.00;;;;;8.07;85.17;97908.25;5084558;28;8993;-64
2022/01/04 10:57:54;;;;;;;;;4.50;3.75;;;;;8.08;84.62;97899.31;5085878;28;8857;-64
2022/01/04 11:00:22;;;;;;;;;3.00;3.00;;;;;8.09;84.72;97891.22;5081171;28;8854;-65
2022/01/04 11:02:50;;;;;;;;;0.75;0.00;;;;;8.10;84.57;97890.22;5081770;28;8870;-65
2022/01/04 11:05:18;;;;;;;;;1.00;1.00;;;;;8.07;84.78;97890.50;5082629;28;8892;-65
2022/01/04 11:07:46;;;;;;;;;2.25;2.25;;;;;8.04;84.96;97892.63;5079302;28;8995;-65
2022/01/04 11:10:14;;;;;;;;;1.00;1.00;;;;;8.03;84.60;97890.97;5082398;28;8837;-65
2022/01/04 11:12:42;;;;;;;;;2.25;2.25;;;;;8.02;84.99;97882.22;5085149;28;8853;-65
2022/01/04 11:15:10;;;;;;;;;3.75;3.75;;;;;8.01;85.29;97875.25;5079034;28;8976;-64
2022/01/04 11:17:38;;;;;;;;;3.50;3.50;;;;;8.03;84.94;97864.47;5083428;28;8857;-64
2022/01/04 11:20:06;;;;;;;;;3.00;3.00;;;;;8.04;84.99;97869.63;5084486;28;8858;-64
2022/01/04 11:22:33;;;;;;;;;2.00;0.75;;;;;8.05;84.89;97881.88;5080856;28;8826;-64
2022/01/04 11:25:02;;;;;;;;;4.00;3.50;;;;;8.06;84.65;97890.69;5082414;28;8864;-64
2022/01/04 11:27:30;;;;;;;;;6.00;6.00;;;;;8.06;84.85;97883.56;5083338;28;8873;-65
2022/01/04 11:29:58;;;;;;;;;3.50;3.00;;;;;8.09;84.79;97877.94;5082823;28;8862;-64
2022/01/04 11:32:26;;;;;;;;;3.00;2.00;;;;;8.09;85.13;97859.41;5081670;28;9171;-64
2022/01/04 11:34:54;;;;;;;;;2.50;2.50;;;;;8.12;85.20;97871.47;5081574;28;8860;-64
2022/01/04 11:37:22;;;;;;;;;2.00;2.00;;;;;8.12;85.15;97877.63;5082899;28;8972;-65
2022/01/04 11:39:51;;;;;;;;;2.00;2.00;;;;;8.14;84.42;97886.25;5084136;28;9022;-64
2022/01/04 11:42:19;;;;;;;;;2.00;2.00;;;;;8.17;84.98;97893.06;5081910;28;8984;-64
2022/01/04 11:44:47;;;;;;;;;3.50;3.50;;;;;8.16;84.70;97889.59;5080996;28;8918;-64
2022/01/04 11:47:16;;;;;;;;;3.75;3.75;;;;;8.18;84.89;97892.91;5078994;28;8864;-64
2022/01/04 11:49:43;;;;;;;;;3.25;3.25;;;;;8.20;84.21;97887.50;5082943;28;8857;-64
2022/01/04 11:52:11;;;;;;;;;7.00;3.00;;;;;8.22;84.70;97882.84;5082651;28;8826;-64
2022/01/04 11:54:39;;;;;;;;;3.75;3.75;;;;;8.24;84.44;97887.00;5085387;28;8860;-64
2022/01/04 11:57:08;;;;;;;;;6.00;5.00;;;;;8.25;84.56;97888.66;5082362;28;9024;-65
2022/01/04 11:59:36;;;;;;;;;3.75;3.75;;;;;8.26;84.41;97881.53;5084052;28;8882;-64
2022/01/04 12:02:05;;;;;;;;;2.75;2.75;;;;;8.26;84.74;97874.41;5084054;28;8866;-65